sensor_id;sensor_type;location;lat;lon;timestamp;P1;durP1;ratioP1;P2;durP2;ratioP2
42600;SDS011;28229;48.856;9.088;2022-10-26T00:02:17;6.63;;;3.27;;
42600;SDS011;28229;48.856;9.088;2022-10-26T00:04:43;3.50;;;2.93;;
42600;SDS011;28229;48.856;9.088;2022-10-26T00:07:09;5.80;;;3.23;;
42600;SDS011;28229;48.856;9.088;2022-10-26T00:09:35;4.43;;;3.47;;
42600;SDS011;28229;48.856;9.088;2022-10-26T00:12:01;4.30;;;3.20;;
42600;SDS011;28229;48.856;9.088;2022-10-26T00:14:28;3.47;;;3.10;;
42600;SDS011;28229;48.856;9.088;2022-10-26T00:16:54;3.17;;;2.87;;
42600;SDS011;28229;48.856;9.088;2022-10-26T00:19:20;4.17;;;2.80;;
42600;SDS011;28229;48.856;9.088;2022-10-26T00:21:45;5.90;;;3.10;;
42600;SDS011;28229;48.856;9.088;2022-10-26T00:24:11;4.83;;;3.47;;
42600;SDS011;28229;48.856;9.088;2022-10-26T00:26:38;6.37;;;3.37;;
42600;SDS011;28229;48.856;9.088;2022-10-26T00:29:04;5.10;;;3.10;;
42600;SDS011;28229;48.856;9.088;2022-10-26T00:31:30;5.57;;;3.37;;
42600;SDS011;28229;48.856;9.088;2022-10-26T00:33:56;5.53;;;3.07;;
42600;SDS011;28229;48.856;9.088;2022-10-26T00:36:23;4.53;;;2.97;;
42600;SDS011;28229;48.856;9.088;2022-10-26T00:38:51;3.10;;;2.83;;
42600;SDS011;28229;48.856;9.088;2022-10-26T00:41:20;4.60;;;2.90;;
42600;SDS011;28229;48.856;9.088;2022-10-26T00:43:48;5.10;;;3.10;;
42600;SDS011;28229;48.856;9.088;2022-10-26T00:46:21;7.00;;;3.33;;
42600;SDS011;28229;48.856;9.088;2022-10-26T00:49:10;3.50;;;3.20;;
42600;SDS011;28229;48.856;9.088;2022-10-26T00:51:45;4.77;;;3.03;;
42600;SDS011;28229;48.856;9.088;2022-10-26T00:54:15;4.43;;;2.67;;
42600;SDS011;28229;48.856;9.088;2022-10-26T00:56:43;3.60;;;2.50;;
42600;SDS011;28229;48.856;9.088;2022-10-26T00:59:10;3.53;;;2.30;;
42600;SDS011;28229;48.856;9.088;2022-10-26T01:01:38;4.03;;;2.33;;
42600;SDS011;28229;48.856;9.088;2022-10-26T01:04:07;4.20;;;2.43;;
42600;SDS011;28229;48.856;9.088;2022-10-26T01:06:33;3.13;;;2.67;;
42600;SDS011;28229;48.856;9.088;2022-10-26T01:09:00;2.37;;;2.17;;
42600;SDS011;28229;48.856;9.088;2022-10-26T01:11:27;3.87;;;2.30;;
42600;SDS011;28229;48.856;9.088;2022-10-26T01:13:53;3.27;;;2.27;;
42600;SDS011;28229;48.856;9.088;2022-10-26T01:27:47;4.53;;;2.63;;
42600;SDS011;28229;48.856;9.088;2022-10-26T01:35:42;2.97;;;2.67;;
42600;SDS011;28229;48.856;9.088;2022-10-26T01:38:21;3.63;;;2.90;;
42600;SDS011;28229;48.856;9.088;2022-10-26T01:44:11;2.73;;;2.50;;
42600;SDS011;28229;48.856;9.088;2022-10-26T01:46:35;4.40;;;2.50;;
42600;SDS011;28229;48.856;9.088;2022-10-26T01:49:06;3.70;;;2.60;;
42600;SDS011;28229;48.856;9.088;2022-10-26T01:51:35;6.67;;;2.80;;
42600;SDS011;28229;48.856;9.088;2022-10-26T01:54:03;4.10;;;2.60;;
42600;SDS011;28229;48.856;9.088;2022-10-26T01:56:29;3.17;;;2.20;;
42600;SDS011;28229;48.856;9.088;2022-10-26T01:59:12;3.40;;;2.20;;
42600;SDS011;28229;48.856;9.088;2022-10-26T02:04:29;3.00;;;2.20;;
42600;SDS011;28229;48.856;9.088;2022-10-26T02:07:03;4.63;;;2.50;;
42600;SDS011;28229;48.856;9.088;2022-10-26T02:12:28;4.20;;;2.37;;
42600;SDS011;28229;48.856;9.088;2022-10-26T02:15:28;4.60;;;2.63;;
42600;SDS011;28229;48.856;9.088;2022-10-26T02:18:07;4.53;;;2.90;;
42600;SDS011;28229;48.856;9.088;2022-10-26T02:20:43;4.00;;;2.60;;
42600;SDS011;28229;48.856;9.088;2022-10-26T02:23:13;4.60;;;2.77;;
42600;SDS011;28229;48.856;9.088;2022-10-26T02:25:43;3.60;;;2.43;;
42600;SDS011;28229;48.856;9.088;2022-10-26T02:28:16;5.47;;;2.80;;
42600;SDS011;28229;48.856;9.088;2022-10-26T02:30:47;4.37;;;2.77;;
42600;SDS011;28229;48.856;9.088;2022-10-26T02:33:16;4.30;;;3.00;;
42600;SDS011;28229;48.856;9.088;2022-10-26T02:35:45;7.77;;;3.10;;
42600;SDS011;28229;48.856;9.088;2022-10-26T02:38:15;4.83;;;3.33;;
42600;SDS011;28229;48.856;9.088;2022-10-26T02:40:43;3.73;;;2.67;;
42600;SDS011;28229;48.856;9.088;2022-10-26T02:43:12;5.83;;;3.40;;
42600;SDS011;28229;48.856;9.088;2022-10-26T02:45:45;4.23;;;3.20;;
42600;SDS011;28229;48.856;9.088;2022-10-26T02:48:16;4.80;;;3.20;;
42600;SDS011;28229;48.856;9.088;2022-10-26T02:50:48;7.10;;;3.50;;
42600;SDS011;28229;48.856;9.088;2022-10-26T02:53:27;4.30;;;3.33;;
42600;SDS011;28229;48.856;9.088;2022-10-26T02:55:57;4.63;;;3.13;;
42600;SDS011;28229;48.856;9.088;2022-10-26T02:58:28;4.80;;;3.00;;
42600;SDS011;28229;48.856;9.088;2022-10-26T03:00:58;4.30;;;3.40;;
42600;SDS011;28229;48.856;9.088;2022-10-26T03:03:25;4.60;;;3.20;;
42600;SDS011;28229;48.856;9.088;2022-10-26T03:05:50;4.93;;;3.30;;
42600;SDS011;28229;48.856;9.088;2022-10-26T03:08:16;4.57;;;2.90;;
42600;SDS011;28229;48.856;9.088;2022-10-26T03:10:42;5.07;;;3.00;;
42600;SDS011;28229;48.856;9.088;2022-10-26T03:13:10;3.57;;;2.97;;
42600;SDS011;28229;48.856;9.088;2022-10-26T03:15:38;3.63;;;2.93;;
42600;SDS011;28229;48.856;9.088;2022-10-26T03:18:04;4.80;;;3.40;;
42600;SDS011;28229;48.856;9.088;2022-10-26T03:20:30;4.17;;;2.93;;
42600;SDS011;28229;48.856;9.088;2022-10-26T03:22:56;5.77;;;3.50;;
42600;SDS011;28229;48.856;9.088;2022-10-26T03:25:22;5.33;;;3.00;;
42600;SDS011;28229;48.856;9.088;2022-10-26T03:27:56;3.60;;;3.10;;
42600;SDS011;28229;48.856;9.088;2022-10-26T03:30:30;5.03;;;2.70;;
42600;SDS011;28229;48.856;9.088;2022-10-26T03:32:56;6.07;;;2.63;;
42600;SDS011;28229;48.856;9.088;2022-10-26T03:35:22;4.90;;;2.83;;
42600;SDS011;28229;48.856;9.088;2022-10-26T03:37:48;5.00;;;2.80;;
42600;SDS011;28229;48.856;9.088;2022-10-26T03:40:14;4.80;;;2.47;;
42600;SDS011;28229;48.856;9.088;2022-10-26T03:42:40;4.30;;;2.73;;
42600;SDS011;28229;48.856;9.088;2022-10-26T03:45:07;3.50;;;2.47;;
42600;SDS011;28229;48.856;9.088;2022-10-26T03:47:33;4.37;;;2.30;;
42600;SDS011;28229;48.856;9.088;2022-10-26T03:50:04;3.80;;;2.53;;
42600;SDS011;28229;48.856;9.088;2022-10-26T03:52:30;5.20;;;2.83;;
42600;SDS011;28229;48.856;9.088;2022-10-26T03:54:56;5.07;;;3.07;;
42600;SDS011;28229;48.856;9.088;2022-10-26T03:57:22;4.87;;;3.00;;
42600;SDS011;28229;48.856;9.088;2022-10-26T03:59:48;6.37;;;2.90;;
42600;SDS011;28229;48.856;9.088;2022-10-26T04:02:14;6.60;;;2.80;;
42600;SDS011;28229;48.856;9.088;2022-10-26T04:04:39;4.13;;;2.70;;
42600;SDS011;28229;48.856;9.088;2022-10-26T04:07:05;3.90;;;2.53;;
42600;SDS011;28229;48.856;9.088;2022-10-26T04:09:31;5.23;;;2.53;;
42600;SDS011;28229;48.856;9.088;2022-10-26T04:11:57;5.27;;;2.60;;
42600;SDS011;28229;48.856;9.088;2022-10-26T04:14:22;3.87;;;2.57;;
42600;SDS011;28229;48.856;9.088;2022-10-26T04:16:48;6.43;;;2.70;;
42600;SDS011;28229;48.856;9.088;2022-10-26T04:19:14;4.90;;;2.77;;
42600;SDS011;28229;48.856;9.088;2022-10-26T04:21:40;4.50;;;3.10;;
42600;SDS011;28229;48.856;9.088;2022-10-26T04:24:06;3.40;;;2.50;;
42600;SDS011;28229;48.856;9.088;2022-10-26T04:26:31;6.93;;;2.70;;
42600;SDS011;28229;48.856;9.088;2022-10-26T04:28:57;2.33;;;2.10;;
42600;SDS011;28229;48.856;9.088;2022-10-26T04:31:23;3.27;;;2.20;;
42600;SDS011;28229;48.856;9.088;2022-10-26T04:33:49;3.07;;;2.00;;
42600;SDS011;28229;48.856;9.088;2022-10-26T04:36:14;3.83;;;2.10;;
42600;SDS011;28229;48.856;9.088;2022-10-26T04:38:40;3.20;;;2.17;;
42600;SDS011;28229;48.856;9.088;2022-10-26T04:41:06;2.47;;;2.00;;
42600;SDS011;28229;48.856;9.088;2022-10-26T04:43:32;4.97;;;2.10;;
42600;SDS011;28229;48.856;9.088;2022-10-26T04:45:57;2.63;;;2.07;;
42600;SDS011;28229;48.856;9.088;2022-10-26T04:48:23;2.73;;;1.80;;
42600;SDS011;28229;48.856;9.088;2022-10-26T04:50:49;1.73;;;1.50;;
42600;SDS011;28229;48.856;9.088;2022-10-26T04:53:16;3.47;;;1.93;;
42600;SDS011;28229;48.856;9.088;2022-10-26T04:55:41;3.53;;;1.80;;
42600;SDS011;28229;48.856;9.088;2022-10-26T04:58:07;2.33;;;1.60;;
42600;SDS011;28229;48.856;9.088;2022-10-26T05:00:33;1.90;;;1.80;;
42600;SDS011;28229;48.856;9.088;2022-10-26T05:02:59;2.50;;;1.83;;
42600;SDS011;28229;48.856;9.088;2022-10-26T05:05:29;2.77;;;1.70;;
42600;SDS011;28229;48.856;9.088;2022-10-26T05:07:56;2.93;;;1.87;;
42600;SDS011;28229;48.856;9.088;2022-10-26T05:10:23;3.27;;;1.93;;
42600;SDS011;28229;48.856;9.088;2022-10-26T05:12:53;3.13;;;1.70;;
42600;SDS011;28229;48.856;9.088;2022-10-26T05:15:19;2.90;;;1.90;;
42600;SDS011;28229;48.856;9.088;2022-10-26T05:17:46;3.23;;;1.90;;
42600;SDS011;28229;48.856;9.088;2022-10-26T05:20:12;3.07;;;1.80;;
42600;SDS011;28229;48.856;9.088;2022-10-26T05:22:39;5.10;;;1.80;;
42600;SDS011;28229;48.856;9.088;2022-10-26T05:25:05;3.40;;;1.90;;
42600;SDS011;28229;48.856;9.088;2022-10-26T05:27:31;3.73;;;1.90;;
42600;SDS011;28229;48.856;9.088;2022-10-26T05:29:57;6.00;;;2.17;;
42600;SDS011;28229;48.856;9.088;2022-10-26T05:32:23;4.40;;;2.10;;
42600;SDS011;28229;48.856;9.088;2022-10-26T05:34:49;3.53;;;2.10;;
42600;SDS011;28229;48.856;9.088;2022-10-26T05:37:14;4.77;;;2.20;;
42600;SDS011;28229;48.856;9.088;2022-10-26T05:39:40;2.10;;;1.90;;
42600;SDS011;28229;48.856;9.088;2022-10-26T05:42:07;4.30;;;2.20;;
42600;SDS011;28229;48.856;9.088;2022-10-26T05:44:33;4.63;;;1.87;;
42600;SDS011;28229;48.856;9.088;2022-10-26T05:46:59;2.97;;;2.10;;
42600;SDS011;28229;48.856;9.088;2022-10-26T05:49:25;2.93;;;1.90;;
42600;SDS011;28229;48.856;9.088;2022-10-26T05:51:50;3.20;;;1.77;;
42600;SDS011;28229;48.856;9.088;2022-10-26T05:54:16;3.63;;;2.00;;
42600;SDS011;28229;48.856;9.088;2022-10-26T05:56:42;5.80;;;2.00;;
42600;SDS011;28229;48.856;9.088;2022-10-26T05:59:12;2.53;;;1.90;;
42600;SDS011;28229;48.856;9.088;2022-10-26T06:01:52;2.23;;;1.87;;
42600;SDS011;28229;48.856;9.088;2022-10-26T06:07:15;3.57;;;2.00;;
42600;SDS011;28229;48.856;9.088;2022-10-26T06:09:43;4.33;;;1.97;;
42600;SDS011;28229;48.856;9.088;2022-10-26T06:12:10;2.33;;;1.90;;
42600;SDS011;28229;48.856;9.088;2022-10-26T06:14:37;2.10;;;1.90;;
42600;SDS011;28229;48.856;9.088;2022-10-26T06:25:40;2.23;;;1.90;;
42600;SDS011;28229;48.856;9.088;2022-10-26T06:28:52;3.80;;;2.13;;
42600;SDS011;28229;48.856;9.088;2022-10-26T06:31:28;2.83;;;1.87;;
42600;SDS011;28229;48.856;9.088;2022-10-26T06:34:00;2.67;;;1.90;;
42600;SDS011;28229;48.856;9.088;2022-10-26T06:36:47;3.93;;;2.03;;
42600;SDS011;28229;48.856;9.088;2022-10-26T06:39:14;3.33;;;2.17;;
42600;SDS011;28229;48.856;9.088;2022-10-26T06:41:42;3.40;;;2.00;;
42600;SDS011;28229;48.856;9.088;2022-10-26T06:47:23;4.10;;;2.30;;
42600;SDS011;28229;48.856;9.088;2022-10-26T06:50:48;3.73;;;2.07;;
42600;SDS011;28229;48.856;9.088;2022-10-26T06:55:44;3.93;;;2.20;;
42600;SDS011;28229;48.856;9.088;2022-10-26T06:58:13;3.43;;;1.90;;
42600;SDS011;28229;48.856;9.088;2022-10-26T07:00:45;4.90;;;2.07;;
42600;SDS011;28229;48.856;9.088;2022-10-26T07:03:14;3.90;;;2.23;;
42600;SDS011;28229;48.856;9.088;2022-10-26T07:05:40;2.10;;;1.90;;
42600;SDS011;28229;48.856;9.088;2022-10-26T07:08:07;5.40;;;2.03;;
42600;SDS011;28229;48.856;9.088;2022-10-26T07:10:33;4.60;;;2.00;;
42600;SDS011;28229;48.856;9.088;2022-10-26T07:13:04;3.53;;;2.13;;
42600;SDS011;28229;48.856;9.088;2022-10-26T07:15:31;4.67;;;2.57;;
42600;SDS011;28229;48.856;9.088;2022-10-26T07:17:58;6.47;;;2.37;;
42600;SDS011;28229;48.856;9.088;2022-10-26T07:20:24;3.43;;;2.50;;
42600;SDS011;28229;48.856;9.088;2022-10-26T07:22:51;4.37;;;2.03;;
42600;SDS011;28229;48.856;9.088;2022-10-26T07:25:18;3.80;;;2.17;;
42600;SDS011;28229;48.856;9.088;2022-10-26T07:27:44;3.77;;;2.27;;
42600;SDS011;28229;48.856;9.088;2022-10-26T07:30:10;7.30;;;2.20;;
42600;SDS011;28229;48.856;9.088;2022-10-26T07:32:36;4.93;;;2.23;;
42600;SDS011;28229;48.856;9.088;2022-10-26T07:35:02;2.67;;;2.03;;
42600;SDS011;28229;48.856;9.088;2022-10-26T07:37:28;2.80;;;1.77;;
42600;SDS011;28229;48.856;9.088;2022-10-26T07:39:54;2.10;;;1.90;;
42600;SDS011;28229;48.856;9.088;2022-10-26T07:42:20;2.70;;;2.10;;
42600;SDS011;28229;48.856;9.088;2022-10-26T07:44:46;5.40;;;1.87;;
42600;SDS011;28229;48.856;9.088;2022-10-26T07:47:12;3.23;;;2.63;;
42600;SDS011;28229;48.856;9.088;2022-10-26T07:49:38;5.10;;;2.47;;
42600;SDS011;28229;48.856;9.088;2022-10-26T07:52:04;6.00;;;2.40;;
42600;SDS011;28229;48.856;9.088;2022-10-26T07:54:30;4.80;;;2.77;;
42600;SDS011;28229;48.856;9.088;2022-10-26T07:56:56;5.43;;;2.33;;
42600;SDS011;28229;48.856;9.088;2022-10-26T07:59:23;5.67;;;2.73;;
42600;SDS011;28229;48.856;9.088;2022-10-26T08:01:48;4.87;;;2.87;;
42600;SDS011;28229;48.856;9.088;2022-10-26T08:04:14;4.07;;;2.53;;
42600;SDS011;28229;48.856;9.088;2022-10-26T08:06:41;5.83;;;2.30;;
42600;SDS011;28229;48.856;9.088;2022-10-26T08:09:07;5.57;;;2.53;;
42600;SDS011;28229;48.856;9.088;2022-10-26T08:11:32;5.10;;;3.27;;
42600;SDS011;28229;48.856;9.088;2022-10-26T08:14:01;8.73;;;3.97;;
42600;SDS011;28229;48.856;9.088;2022-10-26T08:16:27;6.23;;;3.50;;
42600;SDS011;28229;48.856;9.088;2022-10-26T08:18:54;4.90;;;3.30;;
42600;SDS011;28229;48.856;9.088;2022-10-26T08:21:19;3.53;;;2.50;;
42600;SDS011;28229;48.856;9.088;2022-10-26T08:23:45;5.97;;;2.40;;
42600;SDS011;28229;48.856;9.088;2022-10-26T08:26:11;3.00;;;2.23;;
42600;SDS011;28229;48.856;9.088;2022-10-26T08:28:37;6.20;;;2.77;;
42600;SDS011;28229;48.856;9.088;2022-10-26T08:31:04;3.40;;;2.90;;
42600;SDS011;28229;48.856;9.088;2022-10-26T08:33:31;5.13;;;2.50;;
42600;SDS011;28229;48.856;9.088;2022-10-26T08:36:01;4.10;;;2.40;;
42600;SDS011;28229;48.856;9.088;2022-10-26T08:38:29;4.10;;;2.50;;
42600;SDS011;28229;48.856;9.088;2022-10-26T08:40:56;4.80;;;2.53;;
42600;SDS011;28229;48.856;9.088;2022-10-26T08:43:29;6.03;;;2.47;;
42600;SDS011;28229;48.856;9.088;2022-10-26T08:46:00;6.87;;;2.90;;
42600;SDS011;28229;48.856;9.088;2022-10-26T08:48:35;4.00;;;2.70;;
42600;SDS011;28229;48.856;9.088;2022-10-26T08:54:04;3.73;;;2.30;;
42600;SDS011;28229;48.856;9.088;2022-10-26T08:56:34;5.03;;;2.50;;
42600;SDS011;28229;48.856;9.088;2022-10-26T09:01:56;3.60;;;2.10;;
42600;SDS011;28229;48.856;9.088;2022-10-26T09:04:25;3.83;;;2.33;;
42600;SDS011;28229;48.856;9.088;2022-10-26T09:07:03;4.00;;;2.17;;
42600;SDS011;28229;48.856;9.088;2022-10-26T09:12:39;4.40;;;2.33;;
42600;SDS011;28229;48.856;9.088;2022-10-26T09:15:31;3.50;;;2.00;;
42600;SDS011;28229;48.856;9.088;2022-10-26T09:26:32;3.93;;;2.20;;
42600;SDS011;28229;48.856;9.088;2022-10-26T09:29:01;3.27;;;2.10;;
42600;SDS011;28229;48.856;9.088;2022-10-26T09:31:37;4.40;;;2.20;;
42600;SDS011;28229;48.856;9.088;2022-10-26T09:34:05;5.10;;;2.17;;
42600;SDS011;28229;48.856;9.088;2022-10-26T09:36:37;4.60;;;2.53;;
42600;SDS011;28229;48.856;9.088;2022-10-26T09:39:08;5.10;;;2.10;;
42600;SDS011;28229;48.856;9.088;2022-10-26T09:41:41;5.17;;;2.33;;
42600;SDS011;28229;48.856;9.088;2022-10-26T09:44:19;3.50;;;2.00;;
42600;SDS011;28229;48.856;9.088;2022-10-26T09:49:49;5.10;;;2.37;;
42600;SDS011;28229;48.856;9.088;2022-10-26T09:52:20;3.70;;;2.40;;
42600;SDS011;28229;48.856;9.088;2022-10-26T09:54:46;4.63;;;2.30;;
42600;SDS011;28229;48.856;9.088;2022-10-26T09:57:13;4.43;;;2.70;;
42600;SDS011;28229;48.856;9.088;2022-10-26T09:59:41;5.83;;;4.90;;
42600;SDS011;28229;48.856;9.088;2022-10-26T10:04:58;6.13;;;2.30;;
42600;SDS011;28229;48.856;9.088;2022-10-26T10:07:24;3.50;;;2.00;;
42600;SDS011;28229;48.856;9.088;2022-10-26T10:10:04;3.90;;;2.10;;
42600;SDS011;28229;48.856;9.088;2022-10-26T10:12:32;6.23;;;2.10;;
42600;SDS011;28229;48.856;9.088;2022-10-26T10:14:58;5.00;;;2.30;;
42600;SDS011;28229;48.856;9.088;2022-10-26T10:17:24;4.20;;;2.43;;
42600;SDS011;28229;48.856;9.088;2022-10-26T10:19:51;5.37;;;2.03;;
42600;SDS011;28229;48.856;9.088;2022-10-26T10:22:20;5.43;;;2.30;;
42600;SDS011;28229;48.856;9.088;2022-10-26T10:24:57;4.40;;;2.40;;
42600;SDS011;28229;48.856;9.088;2022-10-26T10:27:25;7.17;;;2.30;;
42600;SDS011;28229;48.856;9.088;2022-10-26T10:29:53;7.57;;;2.40;;
42600;SDS011;28229;48.856;9.088;2022-10-26T10:32:21;7.03;;;5.57;;
42600;SDS011;28229;48.856;9.088;2022-10-26T10:34:49;5.37;;;2.50;;
42600;SDS011;28229;48.856;9.088;2022-10-26T10:37:38;4.93;;;2.40;;
42600;SDS011;28229;48.856;9.088;2022-10-26T10:42:34;4.17;;;2.03;;
42600;SDS011;28229;48.856;9.088;2022-10-26T10:45:03;4.40;;;2.47;;
42600;SDS011;28229;48.856;9.088;2022-10-26T10:47:33;4.70;;;2.53;;
42600;SDS011;28229;48.856;9.088;2022-10-26T10:52:29;6.83;;;2.40;;
42600;SDS011;28229;48.856;9.088;2022-10-26T11:00:35;5.43;;;2.50;;
42600;SDS011;28229;48.856;9.088;2022-10-26T11:08:35;5.33;;;2.10;;
42600;SDS011;28229;48.856;9.088;2022-10-26T11:13:55;4.33;;;2.10;;
42600;SDS011;28229;48.856;9.088;2022-10-26T11:16:38;4.70;;;2.30;;
42600;SDS011;28229;48.856;9.088;2022-10-26T11:19:15;5.30;;;2.00;;
42600;SDS011;28229;48.856;9.088;2022-10-26T11:21:53;4.80;;;1.93;;
42600;SDS011;28229;48.856;9.088;2022-10-26T11:26:59;2.97;;;1.80;;
42600;SDS011;28229;48.856;9.088;2022-10-26T11:29:30;2.83;;;1.70;;
42600;SDS011;28229;48.856;9.088;2022-10-26T11:31:58;5.40;;;2.03;;
42600;SDS011;28229;48.856;9.088;2022-10-26T11:37:36;4.27;;;1.80;;
42600;SDS011;28229;48.856;9.088;2022-10-26T11:43:13;5.43;;;1.77;;
42600;SDS011;28229;48.856;9.088;2022-10-26T11:48:39;4.23;;;2.00;;
42600;SDS011;28229;48.856;9.088;2022-10-26T11:51:32;2.77;;;1.60;;
42600;SDS011;28229;48.856;9.088;2022-10-26T11:56:53;4.90;;;1.63;;
42600;SDS011;28229;48.856;9.088;2022-10-26T11:59:22;5.27;;;1.70;;
42600;SDS011;28229;48.856;9.088;2022-10-26T12:01:51;4.47;;;1.60;;
42600;SDS011;28229;48.856;9.088;2022-10-26T12:04:24;2.93;;;1.60;;
42600;SDS011;28229;48.856;9.088;2022-10-26T12:06:55;4.57;;;1.60;;
42600;SDS011;28229;48.856;9.088;2022-10-26T12:09:29;4.67;;;1.50;;
42600;SDS011;28229;48.856;9.088;2022-10-26T12:12:05;6.00;;;2.03;;
42600;SDS011;28229;48.856;9.088;2022-10-26T12:17:12;3.03;;;1.77;;
42600;SDS011;28229;48.856;9.088;2022-10-26T12:22:32;3.30;;;1.47;;
42600;SDS011;28229;48.856;9.088;2022-10-26T12:37:59;3.93;;;1.73;;
42600;SDS011;28229;48.856;9.088;2022-10-26T12:45:42;4.43;;;1.60;;
42600;SDS011;28229;48.856;9.088;2022-10-26T12:48:52;3.00;;;1.70;;
42600;SDS011;28229;48.856;9.088;2022-10-26T12:56:23;3.97;;;1.80;;
42600;SDS011;28229;48.856;9.088;2022-10-26T13:01:46;4.13;;;1.50;;
42600;SDS011;28229;48.856;9.088;2022-10-26T13:07:24;3.28;;;1.70;;
42600;SDS011;28229;48.856;9.088;2022-10-26T13:09:59;4.03;;;1.97;;
42600;SDS011;28229;48.856;9.088;2022-10-26T13:12:34;2.53;;;1.80;;
42600;SDS011;28229;48.856;9.088;2022-10-26T13:18:19;4.07;;;1.70;;
42600;SDS011;28229;48.856;9.088;2022-10-26T13:21:29;2.67;;;1.50;;
42600;SDS011;28229;48.856;9.088;2022-10-26T13:23:48;3.07;;;1.60;;
42600;SDS011;28229;48.856;9.088;2022-10-26T13:26:23;3.10;;;1.70;;
42600;SDS011;28229;48.856;9.088;2022-10-26T13:28:51;4.87;;;1.90;;
42600;SDS011;28229;48.856;9.088;2022-10-26T13:34:00;6.80;;;2.00;;
42600;SDS011;28229;48.856;9.088;2022-10-26T13:36:44;4.67;;;1.80;;
42600;SDS011;28229;48.856;9.088;2022-10-26T13:39:29;4.63;;;1.70;;
42600;SDS011;28229;48.856;9.088;2022-10-26T13:41:57;6.07;;;2.13;;
42600;SDS011;28229;48.856;9.088;2022-10-26T13:44:26;4.00;;;1.53;;
42600;SDS011;28229;48.856;9.088;2022-10-26T13:47:08;4.63;;;1.80;;
42600;SDS011;28229;48.856;9.088;2022-10-26T13:49:38;3.33;;;1.90;;
42600;SDS011;28229;48.856;9.088;2022-10-26T13:52:14;4.90;;;1.80;;
42600;SDS011;28229;48.856;9.088;2022-10-26T13:57:41;3.57;;;1.70;;
42600;SDS011;28229;48.856;9.088;2022-10-26T14:00:14;3.60;;;1.70;;
42600;SDS011;28229;48.856;9.088;2022-10-26T14:02:43;2.80;;;1.80;;
42600;SDS011;28229;48.856;9.088;2022-10-26T14:05:11;5.40;;;1.60;;
42600;SDS011;28229;48.856;9.088;2022-10-26T14:10:23;3.60;;;2.00;;
42600;SDS011;28229;48.856;9.088;2022-10-26T14:12:52;5.17;;;3.27;;
42600;SDS011;28229;48.856;9.088;2022-10-26T14:15:22;5.23;;;2.57;;
42600;SDS011;28229;48.856;9.088;2022-10-26T14:17:51;5.88;;;2.65;;
42600;SDS011;28229;48.856;9.088;2022-10-26T14:20:20;3.53;;;2.58;;
42600;SDS011;28229;48.856;9.088;2022-10-26T14:22:49;8.17;;;3.40;;
42600;SDS011;28229;48.856;9.088;2022-10-26T14:25:19;6.72;;;3.03;;
42600;SDS011;28229;48.856;9.088;2022-10-26T14:27:46;4.78;;;2.47;;
42600;SDS011;28229;48.856;9.088;2022-10-26T14:30:19;4.70;;;3.28;;
42600;SDS011;28229;48.856;9.088;2022-10-26T14:32:50;6.13;;;3.20;;
42600;SDS011;28229;48.856;9.088;2022-10-26T14:35:17;5.28;;;2.20;;
42600;SDS011;28229;48.856;9.088;2022-10-26T14:37:49;4.35;;;2.00;;
42600;SDS011;28229;48.856;9.088;2022-10-26T14:40:19;6.97;;;2.10;;
42600;SDS011;28229;48.856;9.088;2022-10-26T14:42:58;4.72;;;1.98;;
42600;SDS011;28229;48.856;9.088;2022-10-26T14:45:35;3.47;;;1.85;;
42600;SDS011;28229;48.856;9.088;2022-10-26T14:48:04;6.15;;;2.05;;
42600;SDS011;28229;48.856;9.088;2022-10-26T14:50:31;5.55;;;2.20;;
42600;SDS011;28229;48.856;9.088;2022-10-26T14:53:15;5.43;;;2.20;;
42600;SDS011;28229;48.856;9.088;2022-10-26T14:55:48;4.72;;;2.20;;
42600;SDS011;28229;48.856;9.088;2022-10-26T14:58:20;2.97;;;1.92;;
42600;SDS011;28229;48.856;9.088;2022-10-26T15:01:12;3.65;;;1.77;;
42600;SDS011;28229;48.856;9.088;2022-10-26T15:03:47;5.05;;;1.90;;
42600;SDS011;28229;48.856;9.088;2022-10-26T15:06:29;4.85;;;2.05;;
42600;SDS011;28229;48.856;9.088;2022-10-26T15:08:59;4.80;;;1.80;;
42600;SDS011;28229;48.856;9.088;2022-10-26T15:11:26;3.22;;;1.88;;
42600;SDS011;28229;48.856;9.088;2022-10-26T15:13:53;4.80;;;1.77;;
42600;SDS011;28229;48.856;9.088;2022-10-26T15:16:21;4.27;;;1.67;;
42600;SDS011;28229;48.856;9.088;2022-10-26T15:18:51;3.20;;;2.00;;
42600;SDS011;28229;48.856;9.088;2022-10-26T15:23:56;3.93;;;1.77;;
42600;SDS011;28229;48.856;9.088;2022-10-26T15:26:23;6.00;;;2.10;;
42600;SDS011;28229;48.856;9.088;2022-10-26T15:28:49;5.73;;;2.10;;
42600;SDS011;28229;48.856;9.088;2022-10-26T15:36:24;3.17;;;1.50;;
42600;SDS011;28229;48.856;9.088;2022-10-26T15:38:54;3.30;;;1.70;;
42600;SDS011;28229;48.856;9.088;2022-10-26T15:41:27;6.53;;;1.53;;
42600;SDS011;28229;48.856;9.088;2022-10-26T15:43:55;3.23;;;1.90;;
42600;SDS011;28229;48.856;9.088;2022-10-26T15:46:23;4.77;;;1.47;;
42600;SDS011;28229;48.856;9.088;2022-10-26T15:48:54;2.93;;;1.50;;
42600;SDS011;28229;48.856;9.088;2022-10-26T15:51:21;3.53;;;1.63;;
42600;SDS011;28229;48.856;9.088;2022-10-26T15:53:47;3.23;;;1.67;;
42600;SDS011;28229;48.856;9.088;2022-10-26T15:56:18;4.03;;;1.90;;
42600;SDS011;28229;48.856;9.088;2022-10-26T15:58:48;4.20;;;1.90;;
42600;SDS011;28229;48.856;9.088;2022-10-26T16:01:21;2.83;;;1.80;;
42600;SDS011;28229;48.856;9.088;2022-10-26T16:03:48;2.43;;;1.50;;
42600;SDS011;28229;48.856;9.088;2022-10-26T16:06:15;2.90;;;2.20;;
42600;SDS011;28229;48.856;9.088;2022-10-26T16:08:44;8.60;;;6.50;;
42600;SDS011;28229;48.856;9.088;2022-10-26T16:11:14;9.30;;;6.90;;
42600;SDS011;28229;48.856;9.088;2022-10-26T16:13:40;10.17;;;7.13;;
42600;SDS011;28229;48.856;9.088;2022-10-26T16:16:08;9.50;;;8.07;;
42600;SDS011;28229;48.856;9.088;2022-10-26T16:18:40;10.77;;;7.93;;
42600;SDS011;28229;48.856;9.088;2022-10-26T16:21:13;8.27;;;5.83;;
42600;SDS011;28229;48.856;9.088;2022-10-26T16:23:41;6.57;;;5.13;;
42600;SDS011;28229;48.856;9.088;2022-10-26T16:26:10;7.07;;;4.73;;
42600;SDS011;28229;48.856;9.088;2022-10-26T16:28:35;26.93;;;19.30;;
42600;SDS011;28229;48.856;9.088;2022-10-26T16:31:05;13.40;;;7.80;;
42600;SDS011;28229;48.856;9.088;2022-10-26T16:33:33;7.70;;;5.30;;
42600;SDS011;28229;48.856;9.088;2022-10-26T16:36:02;12.67;;;5.30;;
42600;SDS011;28229;48.856;9.088;2022-10-26T16:38:29;10.20;;;7.23;;
42600;SDS011;28229;48.856;9.088;2022-10-26T16:41:07;9.17;;;6.23;;
42600;SDS011;28229;48.856;9.088;2022-10-26T16:43:38;10.87;;;5.33;;
42600;SDS011;28229;48.856;9.088;2022-10-26T16:46:09;16.30;;;11.50;;
42600;SDS011;28229;48.856;9.088;2022-10-26T16:48:40;16.10;;;12.40;;
42600;SDS011;28229;48.856;9.088;2022-10-26T16:51:11;11.80;;;9.43;;
42600;SDS011;28229;48.856;9.088;2022-10-26T16:53:51;27.60;;;20.73;;
42600;SDS011;28229;48.856;9.088;2022-10-26T16:56:19;42.87;;;34.00;;
42600;SDS011;28229;48.856;9.088;2022-10-26T16:58:47;30.30;;;22.00;;
42600;SDS011;28229;48.856;9.088;2022-10-26T17:01:13;18.10;;;12.97;;
42600;SDS011;28229;48.856;9.088;2022-10-26T17:03:47;13.37;;;10.67;;
42600;SDS011;28229;48.856;9.088;2022-10-26T17:06:14;26.97;;;19.73;;
42600;SDS011;28229;48.856;9.088;2022-10-26T17:08:41;76.00;;;52.67;;
42600;SDS011;28229;48.856;9.088;2022-10-26T17:11:13;56.20;;;40.60;;
42600;SDS011;28229;48.856;9.088;2022-10-26T17:13:41;30.57;;;22.33;;
42600;SDS011;28229;48.856;9.088;2022-10-26T17:16:18;36.70;;;24.53;;
42600;SDS011;28229;48.856;9.088;2022-10-26T17:18:45;145.57;;;89.93;;
42600;SDS011;28229;48.856;9.088;2022-10-26T17:21:12;39.53;;;24.37;;
42600;SDS011;28229;48.856;9.088;2022-10-26T17:23:40;17.33;;;10.87;;
42600;SDS011;28229;48.856;9.088;2022-10-26T17:26:07;11.30;;;7.47;;
42600;SDS011;28229;48.856;9.088;2022-10-26T17:28:35;9.37;;;5.00;;
42600;SDS011;28229;48.856;9.088;2022-10-26T17:31:05;9.93;;;5.10;;
42600;SDS011;28229;48.856;9.088;2022-10-26T17:33:34;6.90;;;4.90;;
42600;SDS011;28229;48.856;9.088;2022-10-26T17:36:02;7.40;;;3.70;;